sensor_id;sensor_type;location;lat;lon;timestamp;P1;durP1;ratioP1;P2;durP2;ratioP2
27778;SDS011;30234;48.090;11.464;2023-05-20T00:03:30;5.10;;;3.72;;
27778;SDS011;30234;48.090;11.464;2023-05-20T00:07:31;5.88;;;5.00;;
27778;SDS011;30234;48.090;11.464;2023-05-20T00:11:32;8.57;;;4.85;;
27778;SDS011;30234;48.090;11.464;2023-05-20T00:15:33;5.70;;;4.25;;
27778;SDS011;30234;48.090;11.464;2023-05-20T00:19:35;4.50;;;4.07;;
27778;SDS011;30234;48.090;11.464;2023-05-20T00:23:36;4.35;;;3.95;;
27778;SDS011;30234;48.090;11.464;2023-05-20T00:27:36;5.75;;;4.28;;
27778;SDS011;30234;48.090;11.464;2023-05-20T00:31:37;5.68;;;3.90;;
27778;SDS011;30234;48.090;11.464;2023-05-20T00:35:38;8.85;;;4.50;;
27778;SDS011;30234;48.090;11.464;2023-05-20T00:39:39;4.97;;;3.88;;
27778;SDS011;30234;48.090;11.464;2023-05-20T00:43:40;4.72;;;3.88;;
27778;SDS011;30234;48.090;11.464;2023-05-20T00:47:41;6.35;;;4.55;;
27778;SDS011;30234;48.090;11.464;2023-05-20T00:51:42;10.05;;;4.50;;
27778;SDS011;30234;48.090;11.464;2023-05-20T00:55:43;7.30;;;4.28;;
27778;SDS011;30234;48.090;11.464;2023-05-20T00:59:44;7.55;;;4.50;;
27778;SDS011;30234;48.090;11.464;2023-05-20T01:03:45;7.00;;;5.30;;
27778;SDS011;30234;48.090;11.464;2023-05-20T01:07:47;5.70;;;4.45;;
27778;SDS011;30234;48.090;11.464;2023-05-20T01:11:55;6.40;;;4.38;;
27778;SDS011;30234;48.090;11.464;2023-05-20T01:16:03;5.47;;;4.55;;
27778;SDS011;30234;48.090;11.464;2023-05-20T01:20:06;6.55;;;4.53;;
27778;SDS011;30234;48.090;11.464;2023-05-20T01:24:11;6.88;;;5.40;;
27778;SDS011;30234;48.090;11.464;2023-05-20T01:28:12;5.75;;;4.68;;
27778;SDS011;30234;48.090;11.464;2023-05-20T01:36:22;5.45;;;4.40;;
27778;SDS011;30234;48.090;11.464;2023-05-20T01:40:25;5.68;;;4.47;;
27778;SDS011;30234;48.090;11.464;2023-05-20T01:44:27;7.13;;;4.38;;
27778;SDS011;30234;48.090;11.464;2023-05-20T01:48:28;7.63;;;5.13;;
27778;SDS011;30234;48.090;11.464;2023-05-20T01:52:29;6.47;;;5.60;;
27778;SDS011;30234;48.090;11.464;2023-05-20T01:56:30;7.95;;;5.30;;
27778;SDS011;30234;48.090;11.464;2023-05-20T02:00:32;6.75;;;5.55;;
27778;SDS011;30234;48.090;11.464;2023-05-20T02:04:33;6.00;;;5.10;;
27778;SDS011;30234;48.090;11.464;2023-05-20T02:08:34;5.32;;;4.80;;
27778;SDS011;30234;48.090;11.464;2023-05-20T02:12:36;6.32;;;4.70;;
27778;SDS011;30234;48.090;11.464;2023-05-20T02:16:37;6.50;;;5.05;;
27778;SDS011;30234;48.090;11.464;2023-05-20T02:20:38;6.32;;;5.13;;
27778;SDS011;30234;48.090;11.464;2023-05-20T02:24:40;6.70;;;5.70;;
27778;SDS011;30234;48.090;11.464;2023-05-20T02:28:42;6.38;;;5.30;;
27778;SDS011;30234;48.090;11.464;2023-05-20T02:32:45;10.55;;;5.75;;
27778;SDS011;30234;48.090;11.464;2023-05-20T02:36:47;7.88;;;5.93;;
27778;SDS011;30234;48.090;11.464;2023-05-20T02:40:48;6.18;;;5.50;;
27778;SDS011;30234;48.090;11.464;2023-05-20T02:44:48;8.10;;;6.20;;
27778;SDS011;30234;48.090;11.464;2023-05-20T02:48:49;9.75;;;7.95;;
27778;SDS011;30234;48.090;11.464;2023-05-20T02:52:50;11.15;;;7.72;;
27778;SDS011;30234;48.090;11.464;2023-05-20T02:56:51;14.13;;;8.75;;
27778;SDS011;30234;48.090;11.464;2023-05-20T03:00:52;11.25;;;8.50;;
27778;SDS011;30234;48.090;11.464;2023-05-20T03:04:53;9.60;;;7.68;;
27778;SDS011;30234;48.090;11.464;2023-05-20T03:08:53;11.02;;;7.32;;
27778;SDS011;30234;48.090;11.464;2023-05-20T03:12:54;10.20;;;8.07;;
27778;SDS011;30234;48.090;11.464;2023-05-20T03:16:55;12.73;;;8.00;;
27778;SDS011;30234;48.090;11.464;2023-05-20T03:20:56;11.10;;;8.18;;
27778;SDS011;30234;48.090;11.464;2023-05-20T03:24:57;13.82;;;8.90;;
27778;SDS011;30234;48.090;11.464;2023-05-20T03:29:01;12.93;;;8.82;;
27778;SDS011;30234;48.090;11.464;2023-05-20T03:33:02;13.30;;;9.07;;
27778;SDS011;30234;48.090;11.464;2023-05-20T03:37:04;15.65;;;8.23;;
27778;SDS011;30234;48.090;11.464;2023-05-20T03:41:05;11.02;;;8.45;;
27778;SDS011;30234;48.090;11.464;2023-05-20T03:45:06;11.25;;;8.43;;
27778;SDS011;30234;48.090;11.464;2023-05-20T03:49:08;11.50;;;7.75;;
27778;SDS011;30234;48.090;11.464;2023-05-20T03:53:08;13.95;;;8.82;;
27778;SDS011;30234;48.090;11.464;2023-05-20T03:57:09;13.98;;;9.15;;
27778;SDS011;30234;48.090;11.464;2023-05-20T04:01:10;16.13;;;9.70;;
27778;SDS011;30234;48.090;11.464;2023-05-20T04:05:14;12.52;;;9.07;;
27778;SDS011;30234;48.090;11.464;2023-05-20T04:09:15;16.58;;;9.52;;
27778;SDS011;30234;48.090;11.464;2023-05-20T04:13:16;14.45;;;9.38;;
27778;SDS011;30234;48.090;11.464;2023-05-20T04:17:17;14.23;;;9.57;;
27778;SDS011;30234;48.090;11.464;2023-05-20T04:21:18;15.57;;;9.90;;
27778;SDS011;30234;48.090;11.464;2023-05-20T04:25:18;20.67;;;11.43;;
27778;SDS011;30234;48.090;11.464;2023-05-20T04:29:19;15.38;;;10.27;;
27778;SDS011;30234;48.090;11.464;2023-05-20T04:33:20;13.50;;;9.95;;
27778;SDS011;30234;48.090;11.464;2023-05-20T04:37:21;16.17;;;10.50;;
27778;SDS011;30234;48.090;11.464;2023-05-20T04:41:22;19.50;;;11.00;;
27778;SDS011;30234;48.090;11.464;2023-05-20T04:45:24;15.60;;;11.60;;
27778;SDS011;30234;48.090;11.464;2023-05-20T04:49:25;18.45;;;12.70;;
27778;SDS011;30234;48.090;11.464;2023-05-20T04:53:28;23.80;;;13.75;;
27778;SDS011;30234;48.090;11.464;2023-05-20T04:57:29;22.73;;;14.00;;
27778;SDS011;30234;48.090;11.464;2023-05-20T05:01:33;20.90;;;12.80;;
27778;SDS011;30234;48.090;11.464;2023-05-20T05:05:34;17.27;;;11.90;;
27778;SDS011;30234;48.090;11.464;2023-05-20T05:09:39;20.40;;;13.38;;
27778;SDS011;30234;48.090;11.464;2023-05-20T05:13:40;18.50;;;12.07;;
27778;SDS011;30234;48.090;11.464;2023-05-20T05:17:41;17.63;;;11.95;;
27778;SDS011;30234;48.090;11.464;2023-05-20T05:21:42;22.65;;;12.20;;
27778;SDS011;30234;48.090;11.464;2023-05-20T05:25:43;16.95;;;12.52;;
27778;SDS011;30234;48.090;11.464;2023-05-20T05:29:43;16.40;;;11.60;;
27778;SDS011;30234;48.090;11.464;2023-05-20T05:33:44;18.25;;;12.35;;
27778;SDS011;30234;48.090;11.464;2023-05-20T05:37:45;18.75;;;11.57;;
27778;SDS011;30234;48.090;11.464;2023-05-20T05:41:46;23.73;;;12.07;;
27778;SDS011;30234;48.090;11.464;2023-05-20T05:45:47;16.73;;;11.48;;
27778;SDS011;30234;48.090;11.464;2023-05-20T05:49:48;15.85;;;10.63;;
27778;SDS011;30234;48.090;11.464;2023-05-20T05:53:49;13.43;;;9.95;;
27778;SDS011;30234;48.090;11.464;2023-05-20T05:57:50;16.17;;;11.07;;
27778;SDS011;30234;48.090;11.464;2023-05-20T06:01:52;15.60;;;10.00;;
27778;SDS011;30234;48.090;11.464;2023-05-20T06:05:52;15.73;;;10.20;;
27778;SDS011;30234;48.090;11.464;2023-05-20T06:09:53;13.77;;;10.40;;
27778;SDS011;30234;48.090;11.464;2023-05-20T06:13:54;15.60;;;9.68;;
27778;SDS011;30234;48.090;11.464;2023-05-20T06:17:55;15.57;;;10.95;;
27778;SDS011;30234;48.090;11.464;2023-05-20T06:21:56;15.90;;;10.13;;
27778;SDS011;30234;48.090;11.464;2023-05-20T06:25:57;14.82;;;9.05;;
27778;SDS011;30234;48.090;11.464;2023-05-20T06:29:59;16.23;;;11.25;;
27778;SDS011;30234;48.090;11.464;2023-05-20T06:33:59;15.63;;;9.65;;
27778;SDS011;30234;48.090;11.464;2023-05-20T06:38:01;12.25;;;9.00;;
27778;SDS011;30234;48.090;11.464;2023-05-20T06:42:02;13.63;;;9.45;;
27778;SDS011;30234;48.090;11.464;2023-05-20T06:46:03;15.52;;;9.77;;
27778;SDS011;30234;48.090;11.464;2023-05-20T06:50:04;14.45;;;9.60;;
27778;SDS011;30234;48.090;11.464;2023-05-20T06:54:05;13.00;;;8.75;;
27778;SDS011;30234;48.090;11.464;2023-05-20T06:58:06;16.35;;;9.32;;
27778;SDS011;30234;48.090;11.464;2023-05-20T07:02:07;13.35;;;10.10;;
27778;SDS011;30234;48.090;11.464;2023-05-20T07:06:07;13.52;;;9.40;;
27778;SDS011;30234;48.090;11.464;2023-05-20T07:10:09;12.90;;;7.78;;
27778;SDS011;30234;48.090;11.464;2023-05-20T07:14:09;16.85;;;10.20;;
27778;SDS011;30234;48.090;11.464;2023-05-20T07:18:10;11.60;;;8.77;;
27778;SDS011;30234;48.090;11.464;2023-05-20T07:22:11;13.40;;;8.27;;
27778;SDS011;30234;48.090;11.464;2023-05-20T07:26:12;12.57;;;8.80;;
27778;SDS011;30234;48.090;11.464;2023-05-20T07:30:13;17.75;;;10.00;;
27778;SDS011;30234;48.090;11.464;2023-05-20T07:34:14;15.02;;;10.20;;
27778;SDS011;30234;48.090;11.464;2023-05-20T07:38:15;13.13;;;10.38;;
27778;SDS011;30234;48.090;11.464;2023-05-20T07:42:16;11.15;;;8.73;;
27778;SDS011;30234;48.090;11.464;2023-05-20T07:46:17;14.07;;;9.52;;
27778;SDS011;30234;48.090;11.464;2023-05-20T07:50:17;12.63;;;8.57;;
27778;SDS011;30234;48.090;11.464;2023-05-20T07:54:18;12.43;;;8.63;;
27778;SDS011;30234;48.090;11.464;2023-05-20T07:58:19;14.05;;;10.95;;
27778;SDS011;30234;48.090;11.464;2023-05-20T08:02:20;13.02;;;9.20;;
27778;SDS011;30234;48.090;11.464;2023-05-20T08:06:21;12.65;;;9.27;;
27778;SDS011;30234;48.090;11.464;2023-05-20T08:10:25;12.98;;;9.38;;
27778;SDS011;30234;48.090;11.464;2023-05-20T08:14:26;14.23;;;8.73;;
27778;SDS011;30234;48.090;11.464;2023-05-20T08:18:26;14.32;;;9.85;;
27778;SDS011;30234;48.090;11.464;2023-05-20T08:22:27;16.40;;;10.30;;
27778;SDS011;30234;48.090;11.464;2023-05-20T08:26:28;15.48;;;10.48;;
27778;SDS011;30234;48.090;11.464;2023-05-20T08:30:29;12.50;;;9.30;;
27778;SDS011;30234;48.090;11.464;2023-05-20T08:34:30;14.85;;;9.70;;
27778;SDS011;30234;48.090;11.464;2023-05-20T08:38:31;14.63;;;9.43;;
27778;SDS011;30234;48.090;11.464;2023-05-20T08:42:32;13.15;;;8.55;;
27778;SDS011;30234;48.090;11.464;2023-05-20T08:46:33;16.02;;;8.50;;
27778;SDS011;30234;48.090;11.464;2023-05-20T08:50:36;14.10;;;8.80;;
27778;SDS011;30234;48.090;11.464;2023-05-20T08:54:47;11.57;;;8.27;;
27778;SDS011;30234;48.090;11.464;2023-05-20T08:58:49;11.02;;;8.45;;
27778;SDS011;30234;48.090;11.464;2023-05-20T09:02:50;9.30;;;7.65;;
27778;SDS011;30234;48.090;11.464;2023-05-20T09:06:52;9.63;;;7.28;;
27778;SDS011;30234;48.090;11.464;2023-05-20T09:10:54;9.88;;;8.50;;
27778;SDS011;30234;48.090;11.464;2023-05-20T09:14:55;11.13;;;7.78;;
27778;SDS011;30234;48.090;11.464;2023-05-20T09:18:56;11.05;;;7.28;;
27778;SDS011;30234;48.090;11.464;2023-05-20T09:23:00;10.73;;;7.00;;
27778;SDS011;30234;48.090;11.464;2023-05-20T09:27:06;9.27;;;7.03;;
27778;SDS011;30234;48.090;11.464;2023-05-20T09:31:07;8.57;;;6.90;;
27778;SDS011;30234;48.090;11.464;2023-05-20T09:35:08;8.60;;;5.68;;
27778;SDS011;30234;48.090;11.464;2023-05-20T09:39:13;10.02;;;5.50;;
27778;SDS011;30234;48.090;11.464;2023-05-20T09:43:16;7.85;;;5.68;;
27778;SDS011;30234;48.090;11.464;2023-05-20T09:47:17;6.50;;;5.45;;
27778;SDS011;30234;48.090;11.464;2023-05-20T09:51:19;7.22;;;4.95;;
27778;SDS011;30234;48.090;11.464;2023-05-20T09:55:23;6.55;;;4.95;;
27778;SDS011;30234;48.090;11.464;2023-05-20T09:59:24;5.78;;;4.78;;
27778;SDS011;30234;48.090;11.464;2023-05-20T10:03:26;5.05;;;4.55;;
27778;SDS011;30234;48.090;11.464;2023-05-20T10:07:40;4.80;;;4.30;;
27778;SDS011;30234;48.090;11.464;2023-05-20T10:12:05;7.13;;;4.32;;
27778;SDS011;30234;48.090;11.464;2023-05-20T10:21:17;9.63;;;3.58;;
27778;SDS011;30234;48.090;11.464;2023-05-20T10:25:24;4.57;;;3.60;;
27778;SDS011;30234;48.090;11.464;2023-05-20T10:29:27;4.50;;;3.50;;
27778;SDS011;30234;48.090;11.464;2023-05-20T10:33:28;4.38;;;3.75;;
27778;SDS011;30234;48.090;11.464;2023-05-20T10:37:41;5.10;;;3.47;;
27778;SDS011;30234;48.090;11.464;2023-05-20T10:41:44;5.25;;;3.25;;
27778;SDS011;30234;48.090;11.464;2023-05-20T10:45:49;3.90;;;2.95;;
27778;SDS011;30234;48.090;11.464;2023-05-20T10:49:51;4.78;;;3.15;;
27778;SDS011;30234;48.090;11.464;2023-05-20T10:53:52;5.05;;;3.20;;
27778;SDS011;30234;48.090;11.464;2023-05-20T10:57:54;3.17;;;2.75;;
27778;SDS011;30234;48.090;11.464;2023-05-20T11:01:55;5.18;;;2.58;;
27778;SDS011;30234;48.090;11.464;2023-05-20T11:05:56;3.72;;;2.80;;
27778;SDS011;30234;48.090;11.464;2023-05-20T11:09:57;3.22;;;1.83;;
27778;SDS011;30234;48.090;11.464;2023-05-20T11:13:58;4.20;;;2.00;;
27778;SDS011;30234;48.090;11.464;2023-05-20T11:18:00;3.35;;;2.60;;
27778;SDS011;30234;48.090;11.464;2023-05-20T11:22:03;2.72;;;2.53;;
27778;SDS011;30234;48.090;11.464;2023-05-20T11:26:07;2.83;;;2.58;;
27778;SDS011;30234;48.090;11.464;2023-05-20T11:30:08;2.83;;;2.53;;
27778;SDS011;30234;48.090;11.464;2023-05-20T11:34:20;6.75;;;2.30;;
27778;SDS011;30234;48.090;11.464;2023-05-20T11:38:22;2.85;;;2.33;;
27778;SDS011;30234;48.090;11.464;2023-05-20T11:42:22;3.63;;;2.05;;
27778;SDS011;30234;48.090;11.464;2023-05-20T11:46:23;2.40;;;2.20;;
27778;SDS011;30234;48.090;11.464;2023-05-20T11:50:24;2.70;;;2.40;;
27778;SDS011;30234;48.090;11.464;2023-05-20T11:54:25;2.70;;;2.45;;
27778;SDS011;30234;48.090;11.464;2023-05-20T11:58:28;4.10;;;2.15;;
27778;SDS011;30234;48.090;11.464;2023-05-20T12:02:30;3.60;;;2.45;;
27778;SDS011;30234;48.090;11.464;2023-05-20T12:06:31;5.18;;;2.17;;
27778;SDS011;30234;48.090;11.464;2023-05-20T12:10:32;2.55;;;2.15;;
27778;SDS011;30234;48.090;11.464;2023-05-20T12:14:33;2.38;;;2.17;;
27778;SDS011;30234;48.090;11.464;2023-05-20T12:18:34;3.42;;;2.60;;
27778;SDS011;30234;48.090;11.464;2023-05-20T12:22:35;4.03;;;2.10;;
27778;SDS011;30234;48.090;11.464;2023-05-20T12:26:36;2.63;;;2.40;;
27778;SDS011;30234;48.090;11.464;2023-05-20T12:30:36;2.75;;;2.47;;
27778;SDS011;30234;48.090;11.464;2023-05-20T12:34:37;6.88;;;2.28;;
27778;SDS011;30234;48.090;11.464;2023-05-20T12:38:38;4.05;;;3.20;;
27778;SDS011;30234;48.090;11.464;2023-05-20T12:42:40;2.75;;;2.03;;
27778;SDS011;30234;48.090;11.464;2023-05-20T12:46:41;2.70;;;2.50;;
27778;SDS011;30234;48.090;11.464;2023-05-20T12:50:42;3.38;;;2.60;;
27778;SDS011;30234;48.090;11.464;2023-05-20T12:54:43;3.42;;;2.83;;
27778;SDS011;30234;48.090;11.464;2023-05-20T12:58:44;3.00;;;2.72;;
27778;SDS011;30234;48.090;11.464;2023-05-20T13:02:45;3.45;;;2.75;;
27778;SDS011;30234;48.090;11.464;2023-05-20T13:06:46;5.65;;;2.58;;
27778;SDS011;30234;48.090;11.464;2023-05-20T13:10:46;2.92;;;2.47;;
27778;SDS011;30234;48.090;11.464;2023-05-20T13:14:48;2.92;;;2.63;;
27778;SDS011;30234;48.090;11.464;2023-05-20T13:18:48;3.30;;;3.00;;
27778;SDS011;30234;48.090;11.464;2023-05-20T13:22:49;5.75;;;2.90;;
27778;SDS011;30234;48.090;11.464;2023-05-20T13:26:50;6.93;;;3.30;;
27778;SDS011;30234;48.090;11.464;2023-05-20T13:30:51;6.43;;;3.47;;
27778;SDS011;30234;48.090;11.464;2023-05-20T13:34:52;4.60;;;3.22;;
27778;SDS011;30234;48.090;11.464;2023-05-20T13:38:53;4.65;;;4.22;;
27778;SDS011;30234;48.090;11.464;2023-05-20T13:42:54;6.43;;;4.65;;
27778;SDS011;30234;48.090;11.464;2023-05-20T13:46:55;4.82;;;4.32;;
27778;SDS011;30234;48.090;11.464;2023-05-20T13:50:56;7.07;;;5.40;;
27778;SDS011;30234;48.090;11.464;2023-05-20T13:54:57;6.00;;;4.60;;
27778;SDS011;30234;48.090;11.464;2023-05-20T13:58:58;8.30;;;5.25;;
27778;SDS011;30234;48.090;11.464;2023-05-20T14:02:58;10.45;;;5.72;;
27778;SDS011;30234;48.090;11.464;2023-05-20T14:07:00;9.65;;;5.28;;
27778;SDS011;30234;48.090;11.464;2023-05-20T14:11:00;7.70;;;5.45;;
27778;SDS011;30234;48.090;11.464;2023-05-20T14:15:01;6.68;;;5.05;;
27778;SDS011;30234;48.090;11.464;2023-05-20T14:19:02;6.90;;;4.93;;
27778;SDS011;30234;48.090;11.464;2023-05-20T14:23:03;8.98;;;4.78;;
27778;SDS011;30234;48.090;11.464;2023-05-20T14:27:04;5.88;;;4.20;;
27778;SDS011;30234;48.090;11.464;2023-05-20T14:31:05;12.70;;;5.50;;
27778;SDS011;30234;48.090;11.464;2023-05-20T14:35:06;6.60;;;5.40;;
27778;SDS011;30234;48.090;11.464;2023-05-20T14:39:07;10.90;;;5.38;;
27778;SDS011;30234;48.090;11.464;2023-05-20T14:43:08;6.30;;;5.70;;
27778;SDS011;30234;48.090;11.464;2023-05-20T14:47:09;7.38;;;5.38;;
27778;SDS011;30234;48.090;11.464;2023-05-20T14:51:10;8.60;;;5.93;;
27778;SDS011;30234;48.090;11.464;2023-05-20T14:55:11;7.00;;;5.53;;
27778;SDS011;30234;48.090;11.464;2023-05-20T14:59:12;6.85;;;5.03;;
27778;SDS011;30234;48.090;11.464;2023-05-20T15:03:13;9.25;;;6.03;;
27778;SDS011;30234;48.090;11.464;2023-05-20T15:07:14;7.90;;;5.05;;
27778;SDS011;30234;48.090;11.464;2023-05-20T15:11:15;7.50;;;5.80;;
27778;SDS011;30234;48.090;11.464;2023-05-20T15:15:16;7.50;;;5.88;;
27778;SDS011;30234;48.090;11.464;2023-05-20T15:19:17;7.00;;;5.97;;
27778;SDS011;30234;48.090;11.464;2023-05-20T15:23:18;9.65;;;5.65;;
27778;SDS011;30234;48.090;11.464;2023-05-20T15:27:18;8.05;;;6.00;;
27778;SDS011;30234;48.090;11.464;2023-05-20T15:31:20;8.02;;;6.28;;
27778;SDS011;30234;48.090;11.464;2023-05-20T15:35:22;11.90;;;6.57;;
27778;SDS011;30234;48.090;11.464;2023-05-20T15:39:22;9.30;;;5.97;;
27778;SDS011;30234;48.090;11.464;2023-05-20T15:43:25;7.68;;;5.75;;
27778;SDS011;30234;48.090;11.464;2023-05-20T15:47:26;11.18;;;6.82;;
27778;SDS011;30234;48.090;11.464;2023-05-20T15:51:27;7.97;;;6.30;;
27778;SDS011;30234;48.090;11.464;2023-05-20T15:55:27;11.15;;;7.07;;
27778;SDS011;30234;48.090;11.464;2023-05-20T15:59:28;14.60;;;9.30;;
27778;SDS011;30234;48.090;11.464;2023-05-20T16:03:29;7.55;;;5.53;;
27778;SDS011;30234;48.090;11.464;2023-05-20T16:07:30;7.97;;;6.43;;
27778;SDS011;30234;48.090;11.464;2023-05-20T16:11:31;8.73;;;6.47;;
27778;SDS011;30234;48.090;11.464;2023-05-20T16:15:32;5.53;;;4.93;;
27778;SDS011;30234;48.090;11.464;2023-05-20T16:19:35;7.18;;;5.50;;
27778;SDS011;30234;48.090;11.464;2023-05-20T16:23:36;8.00;;;6.00;;
27778;SDS011;30234;48.090;11.464;2023-05-20T16:27:37;7.45;;;5.93;;
27778;SDS011;30234;48.090;11.464;2023-05-20T16:31:38;8.18;;;6.28;;
27778;SDS011;30234;48.090;11.464;2023-05-20T16:35:38;8.25;;;6.30;;
27778;SDS011;30234;48.090;11.464;2023-05-20T16:39:39;11.88;;;6.50;;
27778;SDS011;30234;48.090;11.464;2023-05-20T16:43:40;8.70;;;5.97;;
27778;SDS011;30234;48.090;11.464;2023-05-20T16:47:41;9.23;;;6.07;;
27778;SDS011;30234;48.090;11.464;2023-05-20T16:51:42;10.02;;;6.35;;
27778;SDS011;30234;48.090;11.464;2023-05-20T16:55:43;11.55;;;7.45;;
27778;SDS011;30234;48.090;11.464;2023-05-20T16:59:45;12.43;;;6.72;;
27778;SDS011;30234;48.090;11.464;2023-05-20T17:03:45;10.60;;;6.22;;
27778;SDS011;30234;48.090;11.464;2023-05-20T17:07:46;9.90;;;7.90;;
27778;SDS011;30234;48.090;11.464;2023-05-20T17:11:48;9.68;;;7.15;;
27778;SDS011;30234;48.090;11.464;2023-05-20T17:15:50;12.65;;;5.82;;
27778;SDS011;30234;48.090;11.464;2023-05-20T17:19:51;10.15;;;6.03;;
27778;SDS011;30234;48.090;11.464;2023-05-20T17:23:52;7.20;;;6.38;;
27778;SDS011;30234;48.090;11.464;2023-05-20T17:27:53;9.18;;;6.85;;
27778;SDS011;30234;48.090;11.464;2023-05-20T17:31:54;19.58;;;6.85;;
27778;SDS011;30234;48.090;11.464;2023-05-20T17:35:55;10.43;;;5.97;;
27778;SDS011;30234;48.090;11.464;2023-05-20T17:39:56;49.03;;;8.25;;
27778;SDS011;30234;48.090;11.464;2023-05-20T17:43:57;9.77;;;6.18;;
27778;SDS011;30234;48.090;11.464;2023-05-20T17:47:58;7.82;;;6.55;;
27778;SDS011;30234;48.090;11.464;2023-05-20T17:51:58;9.20;;;6.95;;
27778;SDS011;30234;48.090;11.464;2023-05-20T17:55:59;11.25;;;6.90;;
27778;SDS011;30234;48.090;11.464;2023-05-20T18:00:00;9.45;;;7.68;;
27778;SDS011;30234;48.090;11.464;2023-05-20T18:04:03;8.40;;;6.18;;
27778;SDS011;30234;48.090;11.464;2023-05-20T18:08:04;12.70;;;6.60;;
27778;SDS011;30234;48.090;11.464;2023-05-20T18:12:05;8.65;;;7.13;;
27778;SDS011;30234;48.090;11.464;2023-05-20T18:16:07;9.80;;;6.72;;
27778;SDS011;30234;48.090;11.464;2023-05-20T18:20:07;11.48;;;6.50;;
27778;SDS011;30234;48.090;11.464;2023-05-20T18:24:09;7.75;;;6.57;;
27778;SDS011;30234;48.090;11.464;2023-05-20T18:28:10;11.50;;;7.93;;
27778;SDS011;30234;48.090;11.464;2023-05-20T18:32:12;7.78;;;6.32;;
27778;SDS011;30234;48.090;11.464;2023-05-20T18:36:13;9.77;;;6.75;;
27778;SDS011;30234;48.090;11.464;2023-05-20T18:40:14;13.38;;;7.53;;
27778;SDS011;30234;48.090;11.464;2023-05-20T18:44:15;10.38;;;8.00;;
27778;SDS011;30234;48.090;11.464;2023-05-20T18:48:17;10.82;;;7.65;;
27778;SDS011;30234;48.090;11.464;2023-05-20T18:52:18;9.27;;;6.90;;
27778;SDS011;30234;48.090;11.464;2023-05-20T18:56:19;8.52;;;7.30;;
27778;SDS011;30234;48.090;11.464;2023-05-20T19:00:20;10.02;;;6.93;;
27778;SDS011;30234;48.090;11.464;2023-05-20T19:04:21;10.85;;;7.05;;
27778;SDS011;30234;48.090;11.464;2023-05-20T19:08:22;11.75;;;7.35;;
27778;SDS011;30234;48.090;11.464;2023-05-20T19:12:23;11.20;;;7.00;;
27778;SDS011;30234;48.090;11.464;2023-05-20T19:16:25;12.00;;;7.40;;
27778;SDS011;30234;48.090;11.464;2023-05-20T19:20:26;9.38;;;6.70;;
27778;SDS011;30234;48.090;11.464;2023-05-20T19:24:27;9.52;;;7.88;;
27778;SDS011;30234;48.090;11.464;2023-05-20T19:28:30;11.63;;;7.72;;
27778;SDS011;30234;48.090;11.464;2023-05-20T19:32:32;8.48;;;7.47;;
27778;SDS011;30234;48.090;11.464;2023-05-20T19:36:33;9.32;;;7.22;;
27778;SDS011;30234;48.090;11.464;2023-05-20T19:40:35;9.98;;;7.50;;
27778;SDS011;30234;48.090;11.464;2023-05-20T19:44:36;10.68;;;7.65;;
27778;SDS011;30234;48.090;11.464;2023-05-20T19:48:37;11.60;;;8.07;;
27778;SDS011;30234;48.090;11.464;2023-05-20T19:52:38;15.88;;;8.43;;
27778;SDS011;30234;48.090;11.464;2023-05-20T19:56:39;11.23;;;8.48;;
27778;SDS011;30234;48.090;11.464;2023-05-20T20:00:40;10.25;;;8.43;;
27778;SDS011;30234;48.090;11.464;2023-05-20T20:04:41;11.85;;;8.30;;
27778;SDS011;30234;48.090;11.464;2023-05-20T20:08:42;13.32;;;8.50;;
27778;SDS011;30234;48.090;11.464;2023-05-20T20:12:44;10.10;;;7.68;;
27778;SDS011;30234;48.090;11.464;2023-05-20T20:16:45;9.73;;;7.18;;
27778;SDS011;30234;48.090;11.464;2023-05-20T20:20:47;13.43;;;8.75;;
27778;SDS011;30234;48.090;11.464;2023-05-20T20:24:48;10.38;;;7.72;;
27778;SDS011;30234;48.090;11.464;2023-05-20T20:28:49;12.82;;;8.50;;
27778;SDS011;30234;48.090;11.464;2023-05-20T20:32:51;12.75;;;8.65;;
27778;SDS011;30234;48.090;11.464;2023-05-20T20:36:52;10.93;;;8.10;;
27778;SDS011;30234;48.090;11.464;2023-05-20T20:40:53;10.75;;;9.00;;
27778;SDS011;30234;48.090;11.464;2023-05-20T20:44:54;13.18;;;8.50;;
27778;SDS011;30234;48.090;11.464;2023-05-20T20:48:55;11.40;;;8.55;;
27778;SDS011;30234;48.090;11.464;2023-05-20T20:52:56;23.30;;;10.38;;
27778;SDS011;30234;48.090;11.464;2023-05-20T20:56:57;14.20;;;8.40;;
27778;SDS011;30234;48.090;11.464;2023-05-20T21:00:59;11.77;;;8.30;;
27778;SDS011;30234;48.090;11.464;2023-05-20T21:05:02;9.75;;;8.65;;
27778;SDS011;30234;48.090;11.464;2023-05-20T21:09:03;11.25;;;8.32;;
27778;SDS011;30234;48.090;11.464;2023-05-20T21:13:04;12.07;;;8.70;;
27778;SDS011;30234;48.090;11.464;2023-05-20T21:17:05;12.20;;;8.70;;
27778;SDS011;30234;48.090;11.464;2023-05-20T21:21:06;12.20;;;9.80;;
27778;SDS011;30234;48.090;11.464;2023-05-20T21:25:11;9.65;;;8.23;;
27778;SDS011;30234;48.090;11.464;2023-05-20T21:29:12;14.73;;;9.00;;
27778;SDS011;30234;48.090;11.464;2023-05-20T21:33:13;13.27;;;8.52;;
27778;SDS011;30234;48.090;11.464;2023-05-20T21:37:14;11.40;;;8.80;;
27778;SDS011;30234;48.090;11.464;2023-05-20T21:41:15;15.70;;;9.10;;
27778;SDS011;30234;48.090;11.464;2023-05-20T21:45:15;12.77;;;8.85;;
27778;SDS011;30234;48.090;11.464;2023-05-20T21:49:16;13.55;;;9.63;;
27778;SDS011;30234;48.090;11.464;2023-05-20T21:53:17;12.68;;;9.15;;
27778;SDS011;30234;48.090;11.464;2023-05-20T21:57:18;11.25;;;9.25;;
27778;SDS011;30234;48.090;11.464;2023-05-20T22:01:19;19.27;;;9.68;;
27778;SDS011;30234;48.090;11.464;2023-05-20T22:05:20;13.25;;;8.82;;
27778;SDS011;30234;48.090;11.464;2023-05-20T22:09:21;11.68;;;8.80;;
27778;SDS011;30234;48.090;11.464;2023-05-20T22:13:22;14.18;;;9.43;;
27778;SDS011;30234;48.090;11.464;2023-05-20T22:17:25;13.82;;;9.50;;
27778;SDS011;30234;48.090;11.464;2023-05-20T22:21:26;13.48;;;9.45;;
27778;SDS011;30234;48.090;11.464;2023-05-20T22:25:27;11.25;;;9.15;;
27778;SDS011;30234;48.090;11.464;2023-05-20T22:29:28;13.45;;;9.82;;
27778;SDS011;30234;48.090;11.464;2023-05-20T22:33:31;12.45;;;9.57;;
27778;SDS011;30234;48.090;11.464;2023-05-20T22:37:32;11.70;;;8.30;;
27778;SDS011;30234;48.090;11.464;2023-05-20T22:41:33;12.77;;;8.77;;
27778;SDS011;30234;48.090;11.464;2023-05-20T22:45:34;10.00;;;8.60;;
27778;SDS011;30234;48.090;11.464;2023-05-20T22:49:35;12.38;;;8.07;;
27778;SDS011;30234;48.090;11.464;2023-05-20T22:53:38;11.10;;;8.95;;
27778;SDS011;30234;48.090;11.464;2023-05-20T22:57:39;12.32;;;8.50;;
27778;SDS011;30234;48.090;11.464;2023-05-20T23:01:40;12.88;;;8.68;;
27778;SDS011;30234;48.090;11.464;2023-05-20T23:05:43;12.40;;;8.57;;
27778;SDS011;30234;48.090;11.464;2023-05-20T23:09:44;10.43;;;7.80;;
27778;SDS011;30234;48.090;11.464;2023-05-20T23:13:47;9.50;;;7.70;;
27778;SDS011;30234;48.090;11.464;2023-05-20T23:17:48;11.15;;;8.15;;
27778;SDS011;30234;48.090;11.464;2023-05-20T23:21:49;12.00;;;8.40;;
27778;SDS011;30234;48.090;11.464;2023-05-20T23:25:51;16.63;;;8.45;;
27778;SDS011;30234;48.090;11.464;2023-05-20T23:29:52;13.20;;;8.75;;
27778;SDS011;30234;48.090;11.464;2023-05-20T23:33:53;11.02;;;8.20;;
27778;SDS011;30234;48.090;11.464;2023-05-20T23:37:56;11.95;;;8.38;;
27778;SDS011;30234;48.090;11.464;2023-05-20T23:41:57;11.23;;;7.80;;
27778;SDS011;30234;48.090;11.464;2023-05-20T23:45:58;12.55;;;8.65;;
27778;SDS011;30234;48.090;11.464;2023-05-20T23:49:59;11.13;;;8.23;;